Time;durP1;ratioP1;P1;durP2;ratioP2;P2;SDS_P1;SDS_P2;PMS_P1;PMS_P2;Temp;Humidity;BMP_temperature;BMP_pressure;BME280_temperature;BME280_humidity;BME280_pressure;Samples;Min_cycle;Max_cycle;Signal;HPM_P1;HPM_P2
2021/08/19 00:00:27;;;;;;;21.13;15.05;;;16.70;99.90;;;;;;4828664;29;20064;-83
2021/08/19 00:02:56;;;;;;;22.15;14.30;;;16.60;99.90;;;;;;4858328;29;20060;-83
2021/08/19 00:05:22;;;;;;;20.48;16.13;;;16.50;99.90;;;;;;4848183;29;20060;-84
2021/08/19 00:07:51;;;;;;;19.02;14.65;;;16.40;99.90;;;;;;4847403;29;20045;-83
2021/08/19 00:10:18;;;;;;;19.05;14.20;;;16.40;99.90;;;;;;4844985;29;20053;-83
2021/08/19 00:12:47;;;;;;;19.33;15.20;;;16.40;99.90;;;;;;4858870;29;20049;-83
2021/08/19 00:15:14;;;;;;;18.98;14.38;;;16.40;99.90;;;;;;4843587;29;20060;-82
2021/08/19 00:17:42;;;;;;;18.90;14.00;;;16.40;99.90;;;;;;4827771;29;20053;-86
2021/08/19 00:20:09;;;;;;;19.77;14.82;;;16.40;99.90;;;;;;4827823;29;20049;-87
2021/08/19 00:22:36;;;;;;;21.05;15.40;;;16.40;99.90;;;;;;4830163;29;20060;-87
2021/08/19 00:25:05;;;;;;;19.90;15.57;;;16.40;99.90;;;;;;4848800;29;20057;-87
2021/08/19 00:27:31;;;;;;;18.65;14.80;;;16.40;99.90;;;;;;4874199;29;20052;-87
2021/08/19 00:30:01;;;;;;;19.17;16.48;;;16.40;99.90;;;;;;4827235;29;20397;-87
2021/08/19 00:32:28;;;;;;;22.40;16.38;;;16.40;99.90;;;;;;4873768;29;20041;-87
2021/08/19 00:34:57;;;;;;;18.98;15.55;;;16.40;99.90;;;;;;4823859;29;20060;-87
2021/08/19 00:37:26;;;;;;;24.77;15.15;;;16.40;99.90;;;;;;4844369;29;20072;-87
2021/08/19 00:39:53;;;;;;;22.55;15.57;;;16.50;99.90;;;;;;4864452;29;20037;-87
2021/08/19 00:42:22;;;;;;;18.15;14.70;;;16.50;99.90;;;;;;4830075;29;20053;-88
2021/08/19 00:44:49;;;;;;;18.85;14.75;;;16.50;99.90;;;;;;4844779;29;20057;-88
2021/08/19 00:47:15;;;;;;;19.15;14.13;;;16.50;99.90;;;;;;4839461;29;20053;-87
2021/08/19 00:49:43;;;;;;;22.10;14.77;;;16.50;99.90;;;;;;4867805;29;20037;-87
2021/08/19 00:52:14;;;;;;;17.58;14.00;;;16.60;99.90;;;;;;4847987;29;20053;-85
2021/08/19 00:54:44;;;;;;;17.75;14.38;;;16.60;99.90;;;;;;4866941;29;20053;-86
2021/08/19 00:57:13;;;;;;;18.88;13.75;;;16.60;99.90;;;;;;4844067;29;20053;-87
2021/08/19 00:59:43;;;;;;;16.60;13.40;;;16.60;99.90;;;;;;4851850;29;20060;-87
2021/08/19 01:02:12;;;;;;;15.30;12.80;;;16.60;99.90;;;;;;4849276;29;20049;-87
2021/08/19 01:04:42;;;;;;;17.83;13.82;;;16.70;99.90;;;;;;4858591;29;20065;-86
2021/08/19 01:07:09;;;;;;;16.00;13.52;;;16.60;99.90;;;;;;4835890;29;20041;-84
2021/08/19 01:09:37;;;;;;;20.60;14.73;;;16.60;99.90;;;;;;4864788;29;20056;-84
2021/08/19 01:12:12;;;;;;;17.80;13.70;;;16.70;99.90;;;;;;4877769;29;20047;-84
2021/08/19 01:14:42;;;;;;;18.05;14.15;;;16.60;99.90;;;;;;4829997;29;20041;-84
2021/08/19 01:17:18;;;;;;;17.38;13.00;;;16.70;99.90;;;;;;4848471;29;20416;-84
2021/08/19 01:19:58;;;;;;;17.17;12.70;;;16.70;99.90;;;;;;4845314;29;20045;-84
2021/08/19 01:22:33;;;;;;;16.92;13.48;;;16.60;99.90;;;;;;4847345;29;20037;-84
2021/08/19 01:25:12;;;;;;;;;;;16.70;99.90;;;;;;4843574;29;20049;-84
2021/08/19 01:27:44;;;;;;;15.68;12.15;;;16.60;99.90;;;;;;4842579;29;19924;-84
2021/08/19 01:30:13;;;;;;;17.83;12.38;;;16.60;99.90;;;;;;4836746;29;20494;-84
2021/08/19 01:32:43;;;;;;;15.98;12.32;;;16.60;99.90;;;;;;4863038;29;20473;-84
2021/08/19 01:35:09;;;;;;;17.98;12.45;;;16.60;99.90;;;;;;4842457;29;20053;-84
2021/08/19 01:37:36;;;;;;;14.60;12.70;;;16.60;99.90;;;;;;4845126;29;20587;-84
2021/08/19 01:40:04;;;;;;;18.48;13.25;;;16.60;99.90;;;;;;4824498;29;20049;-84
2021/08/19 01:42:31;;;;;;;15.77;12.55;;;16.50;99.90;;;;;;4829003;29;20050;-84
2021/08/19 01:44:58;;;;;;;20.10;12.82;;;16.40;99.90;;;;;;4850775;29;20063;-84
2021/08/19 01:47:25;;;;;;;18.17;13.40;;;16.40;99.90;;;;;;4866822;29;20055;-83
2021/08/19 01:49:57;;;;;;;18.38;13.77;;;16.30;99.90;;;;;;4868447;29;20045;-84
2021/08/19 01:52:27;;;;;;;15.50;12.65;;;16.30;99.90;;;;;;4834287;29;20045;-83
2021/08/19 01:54:59;;;;;;;17.45;13.20;;;16.20;99.90;;;;;;4842157;29;20053;-83
2021/08/19 01:57:29;;;;;;;19.08;14.05;;;16.20;99.90;;;;;;4822641;29;20054;-83
2021/08/19 01:59:59;;;;;;;15.32;11.98;;;16.20;99.90;;;;;;4838064;29;20052;-84
2021/08/19 02:02:26;;;;;;;17.02;12.80;;;16.30;99.90;;;;;;4859572;29;20056;-83
2021/08/19 02:04:55;;;;;;;17.02;12.30;;;16.30;99.90;;;;;;4859510;29;20052;-84
2021/08/19 02:07:21;;;;;;;18.92;13.60;;;16.30;99.90;;;;;;4833450;29;20049;-83
2021/08/19 02:09:51;;;;;;;17.65;12.95;;;16.40;99.90;;;;;;4839358;29;20049;-86
2021/08/19 02:12:22;;;;;;;15.95;13.07;;;16.40;99.90;;;;;;4841525;29;20045;-86
2021/08/19 02:14:48;;;;;;;17.05;11.52;;;16.40;99.90;;;;;;4848001;29;20042;-87
2021/08/19 02:17:15;;;;;;;17.35;13.02;;;16.40;99.90;;;;;;4815255;29;20062;-87
2021/08/19 02:19:42;;;;;;;16.23;12.52;;;16.50;99.90;;;;;;4843398;29;20041;-87
2021/08/19 02:22:08;;;;;;;18.52;13.15;;;16.50;99.90;;;;;;4833594;29;20049;-87
2021/08/19 02:24:35;;;;;;;15.45;12.07;;;16.50;99.90;;;;;;4879638;29;20037;-87
2021/08/19 02:27:01;;;;;;;17.27;12.50;;;16.60;99.90;;;;;;4831246;29;20049;-86
2021/08/19 02:29:31;;;;;;;18.30;12.93;;;16.60;99.90;;;;;;4846815;29;20072;-87
2021/08/19 02:31:57;;;;;;;18.45;13.35;;;16.60;99.90;;;;;;4821747;29;20049;-88
2021/08/19 02:34:24;;;;;;;17.48;12.32;;;16.60;99.90;;;;;;4841606;29;20049;-87
2021/08/19 02:36:50;;;;;;;16.98;12.50;;;16.70;99.90;;;;;;4833019;29;20057;-87
2021/08/19 02:39:17;;;;;;;19.92;13.30;;;16.70;99.90;;;;;;4849086;29;20053;-88
2021/08/19 02:41:47;;;;;;;23.13;13.88;;;16.70;99.90;;;;;;4827226;29;20057;-88
2021/08/19 02:44:13;;;;;;;20.90;14.98;;;16.80;99.90;;;;;;4835571;29;20058;-87
2021/08/19 02:46:42;;;;;;;21.02;14.10;;;16.80;99.90;;;;;;4853027;29;20037;-87
2021/08/19 02:49:09;;;;;;;18.45;14.48;;;16.80;99.90;;;;;;4838153;29;20049;-87
2021/08/19 02:51:35;;;;;;;20.83;15.40;;;16.80;99.90;;;;;;4835036;29;20049;-87
2021/08/19 02:54:02;;;;;;;19.88;14.00;;;16.80;99.90;;;;;;4875028;29;20602;-87
2021/08/19 02:56:29;;;;;;;21.30;14.68;;;16.90;99.90;;;;;;4849032;29;20634;-87
2021/08/19 02:58:55;;;;;;;23.63;15.95;;;16.90;99.90;;;;;;4816318;29;20056;-87
2021/08/19 03:01:22;;;;;;;19.65;15.88;;;16.90;99.90;;;;;;4865361;29;20041;-86
2021/08/19 03:03:48;;;;;;;23.80;17.00;;;16.90;99.90;;;;;;4867660;29;20044;-86
2021/08/19 03:06:15;;;;;;;20.92;15.90;;;17.00;99.90;;;;;;4861021;29;20531;-87
2021/08/19 03:08:41;;;;;;;26.55;19.45;;;17.00;99.90;;;;;;4844496;29;20041;-87
2021/08/19 03:11:08;;;;;;;25.27;18.15;;;17.00;99.90;;;;;;4844247;29;20053;-86
2021/08/19 03:13:35;;;;;;;25.40;19.75;;;17.00;99.90;;;;;;4866110;29;20037;-88
2021/08/19 03:16:01;;;;;;;27.17;20.55;;;17.00;99.90;;;;;;4848177;29;20053;-86
2021/08/19 03:18:28;;;;;;;29.70;21.42;;;17.10;99.90;;;;;;4847521;29;20060;-87
2021/08/19 03:20:55;;;;;;;29.83;22.02;;;17.10;99.90;;;;;;4850698;29;20045;-87
2021/08/19 03:23:24;;;;;;;30.02;22.98;;;17.20;99.90;;;;;;4845538;29;20048;-86
2021/08/19 03:25:51;;;;;;;27.08;20.90;;;17.20;99.90;;;;;;4841667;29;20053;-87
2021/08/19 03:28:20;;;;;;;34.67;25.17;;;17.20;99.90;;;;;;4866877;29;20493;-87
2021/08/19 03:30:50;;;;;;;33.88;25.45;;;17.20;99.90;;;;;;4850532;29;20037;-88
2021/08/19 03:33:19;;;;;;;37.95;25.50;;;17.30;99.90;;;;;;4832926;29;20404;-86
2021/08/19 03:35:46;;;;;;;33.58;24.58;;;17.30;99.90;;;;;;4868648;29;20044;-87
2021/08/19 03:38:13;;;;;;;31.02;23.23;;;17.30;99.90;;;;;;4831709;29;20531;-87
2021/08/19 03:40:40;;;;;;;31.63;24.20;;;17.30;99.90;;;;;;4859766;29;20060;-86
2021/08/19 03:43:06;;;;;;;34.45;24.27;;;17.30;99.90;;;;;;4856599;29;20519;-86
2021/08/19 03:45:33;;;;;;;37.40;24.92;;;17.40;99.90;;;;;;4843357;29;20047;-86
2021/08/19 03:48:00;;;;;;;33.60;24.23;;;17.40;99.90;;;;;;4839781;29;20052;-86
2021/08/19 03:50:27;;;;;;;31.58;22.60;;;17.40;99.90;;;;;;4857988;29;20520;-86
2021/08/19 03:52:54;;;;;;;28.52;22.75;;;17.40;99.90;;;;;;4813357;29;20049;-86
2021/08/19 03:55:23;;;;;;;32.22;21.42;;;17.40;99.90;;;;;;4846338;29;20071;-87
2021/08/19 03:57:49;;;;;;;24.58;18.67;;;17.40;99.90;;;;;;4822858;29;20066;-87
2021/08/19 04:00:22;;;;;;;30.75;21.63;;;17.40;99.90;;;;;;4844877;29;20064;-88
2021/08/19 04:02:48;;;;;;;;;;;17.40;99.90;;;;;;4822567;29;20056;-83
2021/08/19 04:05:16;;;;;;;24.98;19.02;;;17.40;99.90;;;;;;4859338;29;20419;-83
2021/08/19 04:07:43;;;;;;;25.40;19.10;;;17.40;99.90;;;;;;4842015;29;20045;-84
2021/08/19 04:10:10;;;;;;;24.38;18.63;;;17.30;99.90;;;;;;4827682;29;20036;-83
2021/08/19 04:13:09;;;;;;;23.83;17.92;;;17.40;99.90;;;;;;4814715;29;20052;-84
2021/08/19 04:15:39;;;;;;;22.48;17.70;;;17.30;99.90;;;;;;4860844;29;20056;-84
2021/08/19 04:18:13;;;;;;;23.83;17.40;;;17.30;99.90;;;;;;4829547;29;20049;-84
2021/08/19 04:20:40;;;;;;;28.88;19.55;;;17.40;99.90;;;;;;4795907;29;20053;-83
2021/08/19 04:23:07;;;;;;;19.00;15.35;;;17.40;99.90;;;;;;4849636;29;20056;-84
2021/08/19 04:25:39;;;;;;;24.58;18.45;;;17.40;99.90;;;;;;4860616;29;20072;-87
2021/08/19 04:28:09;;;;;;;20.85;16.42;;;17.30;99.90;;;;;;4796487;29;20064;-87
2021/08/19 04:30:35;;;;;;;21.58;15.77;;;17.30;99.90;;;;;;4829640;29;20945;-87
2021/08/19 04:33:02;;;;;;;23.75;16.73;;;17.30;99.90;;;;;;4804927;29;20068;-87
2021/08/19 04:35:33;;;;;;;21.77;14.68;;;17.30;99.90;;;;;;4862416;29;20059;-86
2021/08/19 04:38:20;;;;;;;19.67;15.40;;;17.30;99.90;;;;;;4811211;29;20054;-87
2021/08/19 04:40:46;;;;;;;20.75;14.93;;;17.20;99.90;;;;;;4860018;29;20061;-86
2021/08/19 04:43:16;;;;;;;18.80;13.68;;;17.20;99.90;;;;;;4825521;29;20037;-86
2021/08/19 04:45:43;;;;;;;18.02;13.95;;;17.20;99.90;;;;;;4830646;29;20056;-87
2021/08/19 04:48:09;;;;;;;19.55;14.45;;;17.20;99.90;;;;;;4841903;29;20057;-88
2021/08/19 04:50:36;;;;;;;17.70;13.25;;;17.20;99.90;;;;;;4840620;29;20878;-87
2021/08/19 04:53:06;;;;;;;15.10;11.48;;;17.20;99.90;;;;;;4826906;29;20045;-86
2021/08/19 04:55:43;;;;;;;18.05;12.73;;;17.20;99.90;;;;;;4829492;29;20057;-87
2021/08/19 04:58:11;;;;;;;20.70;14.98;;;17.20;99.90;;;;;;4844508;29;20053;-86
2021/08/19 05:01:00;;;;;;;20.65;15.13;;;17.20;99.90;;;;;;4830223;29;20053;-87
2021/08/19 05:03:27;;;;;;;18.55;14.48;;;17.20;99.90;;;;;;4825345;29;20529;-87
2021/08/19 05:05:57;;;;;;;17.30;13.02;;;17.20;99.90;;;;;;4839219;29;20056;-87
2021/08/19 05:08:25;;;;;;;16.23;11.43;;;17.20;99.90;;;;;;4834463;29;20057;-87
2021/08/19 05:10:51;;;;;;;17.35;13.30;;;17.30;99.90;;;;;;4837943;29;20056;-87
2021/08/19 05:13:25;;;;;;;20.08;14.38;;;17.20;99.90;;;;;;4849659;29;20061;-87
2021/08/19 05:15:52;;;;;;;19.13;14.20;;;17.30;99.90;;;;;;4865464;29;20036;-84
2021/08/19 05:18:21;;;;;;;16.98;12.68;;;17.20;99.90;;;;;;4827266;29;20049;-84
2021/08/19 05:20:55;;;;;;;17.33;13.95;;;17.20;99.90;;;;;;4859685;29;20076;-84
2021/08/19 05:23:22;;;;;;;18.55;13.02;;;17.30;99.90;;;;;;4852264;29;20056;-84
2021/08/19 05:25:49;;;;;;;18.67;13.70;;;17.30;99.90;;;;;;4848561;29;20061;-84
2021/08/19 05:28:19;;;;;;;18.45;12.35;;;17.30;99.90;;;;;;4832479;29;20061;-84
2021/08/19 05:30:52;;;;;;;17.70;13.55;;;17.30;99.90;;;;;;4852102;29;20041;-83
2021/08/19 05:33:22;;;;;;;20.25;14.32;;;17.40;99.90;;;;;;4817861;29;20056;-84
2021/08/19 05:35:53;;;;;;;17.00;13.20;;;17.40;99.90;;;;;;4836731;29;20052;-84
2021/08/19 05:38:26;;;;;;;18.60;14.95;;;17.40;99.90;;;;;;4833719;29;20045;-84
2021/08/19 05:40:53;;;;;;;22.92;16.75;;;17.40;99.90;;;;;;4858108;29;20052;-84
2021/08/19 05:43:27;;;;;;;22.30;14.98;;;17.40;99.90;;;;;;4835905;29;20409;-84
2021/08/19 05:45:53;;;;;;;18.65;15.00;;;17.40;99.90;;;;;;4844112;29;20053;-84
2021/08/19 05:48:21;;;;;;;20.08;13.55;;;17.40;99.90;;;;;;4849787;29;20500;-84
2021/08/19 05:50:47;;;;;;;20.05;14.43;;;17.40;99.90;;;;;;4864582;29;20052;-83
2021/08/19 05:53:20;;;;;;;29.73;20.30;;;17.40;99.90;;;;;;4865400;29;20053;-84
2021/08/19 05:55:46;;;;;;;25.38;19.40;;;17.40;99.90;;;;;;4850686;29;20059;-84
2021/08/19 05:58:14;;;;;;;27.52;19.27;;;17.50;99.90;;;;;;4826676;29;20056;-84
2021/08/19 06:00:50;;;;;;;25.27;19.15;;;17.50;99.90;;;;;;4863828;29;20041;-84
2021/08/19 06:03:20;;;;;;;30.55;20.00;;;17.50;99.90;;;;;;4866540;29;20400;-85
2021/08/19 06:05:47;;;;;;;30.67;21.27;;;17.50;99.90;;;;;;4863589;29;20037;-84
2021/08/19 06:08:26;;;;;;;28.17;20.63;;;17.50;99.90;;;;;;4861499;29;20036;-84
2021/08/19 06:11:01;;;;;;;31.42;21.77;;;17.50;99.90;;;;;;4847216;29;20789;-84
2021/08/19 06:14:00;;;;;;;30.33;20.08;;;17.50;99.90;;;;;;4852703;29;20040;-84
2021/08/19 06:16:40;;;;;;;24.17;18.40;;;17.50;99.90;;;;;;4854600;29;20041;-83
2021/08/19 06:19:07;;;;;;;31.63;21.58;;;17.60;99.90;;;;;;4879714;29;20049;-83
2021/08/19 06:21:34;;;;;;;32.10;24.25;;;17.60;99.90;;;;;;4850900;29;20053;-82
2021/08/19 06:24:02;;;;;;;26.15;20.65;;;17.60;99.90;;;;;;4880290;29;20040;-88
2021/08/19 06:26:32;;;;;;;29.23;18.95;;;17.60;99.90;;;;;;4862820;29;20041;-86
2021/08/19 06:29:04;;;;;;;35.92;20.90;;;17.60;99.90;;;;;;4847628;29;20044;-87
2021/08/19 06:31:36;;;;;;;30.17;18.85;;;17.70;99.90;;;;;;4849118;29;20045;-86
2021/08/19 06:34:13;;;;;;;26.00;18.35;;;17.60;99.90;;;;;;4846942;29;20049;-87
2021/08/19 06:36:43;;;;;;;26.20;19.35;;;17.70;99.90;;;;;;4829197;29;20052;-88
2021/08/19 06:40:18;;;;;;;27.50;18.70;;;17.70;99.90;;;;;;4833100;29;20076;-92
2021/08/19 06:44:05;;;;;;;26.80;17.60;;;17.70;99.90;;;;;;4776690;29;21073;-90
2021/08/19 06:46:37;;;;;;;29.77;21.05;;;17.70;99.90;;;;;;4790449;29;20062;-88
2021/08/19 06:49:26;;;;;;;31.40;20.88;;;17.70;99.90;;;;;;4769961;29;20059;-88
2021/08/19 06:52:04;;;;;;;25.92;18.38;;;17.70;99.90;;;;;;4785715;29;20444;-90
2021/08/19 06:54:58;;;;;;;28.20;18.77;;;17.70;99.90;;;;;;4777908;29;20059;-94
2021/08/19 07:02:38;;;;;;;27.58;18.40;;;17.70;99.90;;;;;;4813604;29;20042;-93
2021/08/19 07:05:09;;;;;;;24.08;17.08;;;17.80;99.90;;;;;;4798248;29;20056;-87
2021/08/19 07:08:27;;;;;;;;;;;;;;;;;;;;;
2021/08/19 07:11:33;;;;;;;26.90;17.40;;;17.80;99.90;;;;;;4844011;29;20037;-89
2021/08/19 07:14:00;;;;;;;29.00;21.38;;;17.80;99.90;;;;;;4846955;29;20048;-89
2021/08/19 07:16:27;;;;;;;30.13;21.70;;;17.80;99.90;;;;;;4834694;29;20065;-83
2021/08/19 07:18:53;;;;;;;26.98;19.58;;;17.80;99.90;;;;;;4826203;29;20048;-83
2021/08/19 07:21:22;;;;;;;24.05;17.85;;;17.80;99.90;;;;;;4843932;29;20041;-83
2021/08/19 07:23:48;;;;;;;25.73;18.60;;;17.80;99.90;;;;;;4838536;29;20048;-83
2021/08/19 07:26:16;;;;;;;29.42;19.80;;;17.80;99.90;;;;;;4839462;29;20690;-83
2021/08/19 07:28:57;;;;;;;25.90;19.02;;;17.80;99.90;;;;;;4826546;29;20054;-85
2021/08/19 07:31:39;;;;;;;25.48;17.65;;;17.80;99.90;;;;;;4840406;29;20046;-88
2021/08/19 07:34:29;;;;;;;;;;;;;;;;;;;;;
2021/08/19 07:37:24;;;;;;;26.90;19.38;;;17.90;99.90;;;;;;4772308;29;20043;-87
2021/08/19 07:40:05;;;;;;;27.25;17.10;;;17.90;99.90;;;;;;4807808;29;20136;-87
2021/08/19 07:42:33;;;;;;;30.52;19.75;;;17.90;99.90;;;;;;4826404;29;20049;-87
2021/08/19 07:45:08;;;;;;;25.67;20.25;;;17.90;99.90;;;;;;4844456;29;20057;-87
2021/08/19 07:47:35;;;;;;;27.60;21.45;;;18.00;99.90;;;;;;4827466;29;20075;-87
2021/08/19 07:50:25;;;;;;;24.20;17.95;;;18.00;99.90;;;;;;4838847;29;20061;-86
2021/08/19 07:52:55;;;;;;;28.13;19.77;;;18.10;99.90;;;;;;4850496;29;20398;-88
2021/08/19 07:55:24;;;;;;;29.58;20.52;;;18.10;99.90;;;;;;4831378;29;20048;-88
2021/08/19 07:58:02;;;;;;;27.40;20.13;;;18.20;99.90;;;;;;4860139;29;20064;-89
2021/08/19 08:00:58;;;;;;;23.67;16.27;;;18.30;99.90;;;;;;4852230;29;20072;-88
2021/08/19 08:03:30;;;;;;;28.57;20.30;;;18.40;99.90;;;;;;4833060;29;20076;-83
2021/08/19 08:06:11;;;;;;;25.65;19.60;;;18.50;99.90;;;;;;4818019;29;20053;-83
2021/08/19 08:08:40;;;;;;;29.50;20.05;;;18.60;99.90;;;;;;4819609;29;20048;-83
2021/08/19 08:11:25;;;;;;;;;;;;;;;;;;;;;
2021/08/19 08:14:28;;;;;;;26.67;17.98;;;18.70;99.90;;;;;;4846865;29;20037;-83
2021/08/19 08:17:00;;;;;;;24.25;18.48;;;18.60;99.90;;;;;;4796832;29;20053;-83
2021/08/19 08:19:33;;;;;;;21.27;18.42;;;18.60;99.90;;;;;;4832923;29;20409;-83
2021/08/19 08:22:16;;;;;;;24.27;19.52;;;18.60;99.90;;;;;;4843966;29;20429;-84
2021/08/19 08:24:50;;;;;;;25.02;17.55;;;18.60;99.90;;;;;;4843621;29;20052;-84
2021/08/19 08:27:27;;;;;;;29.50;20.23;;;18.70;99.90;;;;;;4828102;29;20053;-85
2021/08/19 08:30:03;;;;;;;19.48;16.05;;;18.70;99.90;;;;;;4813788;29;20045;-87
2021/08/19 08:32:32;;;;;;;15.38;13.27;;;18.70;99.90;;;;;;4826642;29;20049;-88
2021/08/19 08:35:06;;;;;;;19.63;16.25;;;18.70;99.90;;;;;;4814759;29;20053;-89
2021/08/19 08:37:46;;;;;;;20.02;16.33;;;18.80;99.90;;;;;;4817341;29;20060;-87
2021/08/19 08:40:16;;;;;;;17.92;15.05;;;18.80;99.90;;;;;;4820794;29;20057;-86
2021/08/19 08:42:52;;;;;;;21.60;16.25;;;18.70;99.90;;;;;;4825820;29;20505;-86
2021/08/19 08:45:19;;;;;;;26.02;18.92;;;18.70;99.90;;;;;;4860507;29;20096;-86
2021/08/19 08:52:05;;;;;;;21.83;16.75;;;18.50;99.90;;;;;;4790094;29;20058;-87
2021/08/19 08:54:58;;;;;;;18.75;16.02;;;18.50;99.90;;;;;;4780770;30;20039;-86
2021/08/19 08:58:23;;;;;;;20.73;15.82;;;18.50;99.90;;;;;;4759259;29;20519;-87
2021/08/19 09:01:19;;;;;;;19.55;15.05;;;18.50;99.90;;;;;;4787957;29;20051;-88
2021/08/19 09:03:50;;;;;;;22.38;14.55;;;18.50;99.90;;;;;;4770757;29;20051;-87
2021/08/19 09:06:37;;;;;;;17.98;13.85;;;18.60;99.90;;;;;;4824032;29;20033;-87
2021/08/19 09:09:18;;;;;;;23.20;14.55;;;18.60;99.90;;;;;;4864545;29;20049;-83
2021/08/19 09:12:02;;;;;;;20.48;14.02;;;18.70;99.90;;;;;;4847924;29;20044;-84
2021/08/19 09:14:36;;;;;;;20.63;14.63;;;18.70;99.90;;;;;;4845055;29;20572;-83
2021/08/19 09:17:09;;;;;;;16.67;13.63;;;18.80;99.90;;;;;;4846436;29;20038;-84
2021/08/19 09:19:39;;;;;;;21.17;14.27;;;18.80;99.90;;;;;;4879863;29;20044;-83
2021/08/19 09:22:13;;;;;;;16.05;13.63;;;18.80;99.90;;;;;;4867522;29;20049;-83
2021/08/19 09:25:08;;;;;;;15.98;12.88;;;18.70;99.90;;;;;;4853074;29;20389;-83
2021/08/19 09:27:35;;;;;;;17.70;13.70;;;18.70;99.90;;;;;;4840206;29;20036;-87
2021/08/19 09:30:19;;;;;;;19.48;13.40;;;18.70;99.90;;;;;;4846215;29;20044;-87
2021/08/19 09:32:54;;;;;;;17.60;13.63;;;18.70;99.90;;;;;;4843218;29;20058;-87
2021/08/19 09:35:52;;;;;;;14.35;12.88;;;18.70;99.90;;;;;;4818974;29;20123;-86
2021/08/19 09:38:36;;;;;;;17.35;12.05;;;18.70;99.90;;;;;;4870085;29;20385;-87
2021/08/19 09:41:38;;;;;;;;;;;;;;;;;;;;;
2021/08/19 09:44:17;;;;;;;17.02;13.35;;;18.90;99.90;;;;;;4862431;29;20044;-87
2021/08/19 09:47:09;;;;;;;14.02;11.07;;;19.00;99.90;;;;;;4832047;29;20069;-87
2021/08/19 09:50:30;;;;;;;11.20;8.88;;;19.10;99.90;;;;;;4846269;29;20419;-87
2021/08/19 09:53:39;;;;;;;14.80;11.68;;;19.10;99.90;;;;;;4832478;29;20053;-88
2021/08/19 09:56:10;;;;;;;14.52;11.65;;;19.10;99.90;;;;;;4849671;29;20089;-87
2021/08/19 09:58:41;;;;;;;12.98;11.07;;;19.10;99.90;;;;;;4866133;29;20045;-84
2021/08/19 10:01:16;;;;;;;14.60;10.60;;;19.00;99.90;;;;;;4845985;29;20064;-87
2021/08/19 10:03:46;;;;;;;13.02;10.82;;;18.90;99.90;;;;;;4845476;29;20060;-87
2021/08/19 10:06:13;;;;;;;11.30;10.13;;;18.80;99.90;;;;;;4852380;29;20045;-87
2021/08/19 10:08:48;;;;;;;11.00;9.55;;;18.70;99.90;;;;;;4870169;29;20048;-84
2021/08/19 10:11:20;;;;;;;12.60;10.25;;;18.70;99.90;;;;;;4844162;29;20061;-84
2021/08/19 10:13:50;;;;;;;11.65;10.45;;;18.70;99.90;;;;;;4841357;29;20048;-87
2021/08/19 10:16:19;;;;;;;13.20;9.77;;;18.70;99.90;;;;;;4880697;29;20029;-88
2021/08/19 10:18:52;;;;;;;11.82;8.85;;;18.60;99.90;;;;;;4868257;29;20100;-88
2021/08/19 10:21:20;;;;;;;13.35;10.20;;;18.60;99.90;;;;;;4829618;29;20049;-88
2021/08/19 10:27:39;;;;;;;;;;;;;;;;;;;;;
2021/08/19 10:30:25;;;;;;;11.90;10.32;;;18.60;99.90;;;;;;4878610;29;20033;-88
2021/08/19 10:33:23;;;;;;;12.00;9.35;;;18.50;99.90;;;;;;4851225;29;20045;-87
2021/08/19 10:35:53;;;;;;;11.82;9.45;;;18.50;99.90;;;;;;4831658;29;20041;-88
2021/08/19 10:38:30;;;;;;;13.00;9.65;;;18.50;99.90;;;;;;4869974;29;20037;-88
2021/08/19 10:41:43;;;;;;;10.18;9.18;;;18.50;99.90;;;;;;4880250;29;20048;-85
2021/08/19 10:44:13;;;;;;;13.52;10.85;;;18.40;99.90;;;;;;4878035;29;20115;-84
2021/08/19 10:50:48;;;;;;;14.52;11.13;;;18.30;99.90;;;;;;4863390;29;20044;-85
2021/08/19 10:53:28;;;;;;;12.70;10.57;;;18.20;99.90;;;;;;4820848;29;20045;-88
2021/08/19 10:55:56;;;;;;;12.30;9.88;;;18.10;99.90;;;;;;4882132;29;20040;-85
2021/08/19 10:58:45;;;;;;;12.68;11.05;;;18.10;99.90;;;;;;4848297;29;20416;-88
2021/08/19 11:01:15;;;;;;;12.25;11.02;;;18.00;99.90;;;;;;4846180;29;20048;-90
2021/08/19 11:03:46;;;;;;;14.25;11.35;;;18.00;99.90;;;;;;4851965;29;20362;-90
2021/08/19 11:06:22;;;;;;;12.98;11.13;;;18.10;99.90;;;;;;4844869;29;20386;-90
2021/08/19 11:08:52;;;;;;;15.35;11.55;;;18.10;99.90;;;;;;4836959;29;20050;-89
2021/08/19 11:11:59;;;;;;;13.52;12.10;;;18.00;99.90;;;;;;4835006;29;20481;-89
2021/08/19 11:15:01;;;;;;;13.30;11.88;;;18.00;99.90;;;;;;4835856;29;20045;-89
2021/08/19 11:17:28;;;;;;;13.50;11.90;;;17.90;99.90;;;;;;4831157;29;20059;-83
2021/08/19 11:19:55;;;;;;;15.65;13.93;;;18.00;99.90;;;;;;4834594;29;20049;-85
2021/08/19 11:22:24;;;;;;;19.45;15.20;;;17.90;99.90;;;;;;4824245;29;20053;-88
2021/08/19 11:24:54;;;;;;;13.75;12.20;;;17.90;99.90;;;;;;4815746;29;20061;-87
2021/08/19 11:27:23;;;;;;;15.13;13.52;;;17.90;99.90;;;;;;4855365;29;20056;-87
2021/08/19 11:29:50;;;;;;;14.63;13.13;;;17.90;99.90;;;;;;4865883;29;20472;-87
2021/08/19 11:32:16;;;;;;;14.65;12.90;;;18.00;99.90;;;;;;4840693;29;20055;-88
2021/08/19 11:34:53;;;;;;;17.23;14.40;;;18.00;99.90;;;;;;4837655;29;20056;-90
2021/08/19 11:37:34;;;;;;;15.95;14.20;;;18.10;99.90;;;;;;4855975;29;20505;-88
2021/08/19 11:40:05;;;;;;;20.13;14.52;;;18.20;99.90;;;;;;4826972;29;20048;-89
2021/08/19 11:42:37;;;;;;;15.48;13.88;;;18.30;99.90;;;;;;4842093;29;20056;-87
2021/08/19 11:45:22;;;;;;;12.77;11.40;;;18.50;99.90;;;;;;4855333;29;20058;-90
2021/08/19 11:47:52;;;;;;;14.07;12.55;;;18.60;99.90;;;;;;4828586;29;20052;-88
2021/08/19 11:50:28;;;;;;;16.73;12.75;;;18.70;99.90;;;;;;4874480;29;20044;-88
2021/08/19 11:53:01;;;;;;;17.52;14.77;;;18.90;99.90;;;;;;4851533;29;20058;-87
2021/08/19 11:55:29;;;;;;;23.50;16.05;;;19.00;99.90;;;;;;4858579;29;20041;-86
2021/08/19 11:58:19;;;;;;;15.65;13.23;;;19.00;99.90;;;;;;4849519;29;20041;-88
2021/08/19 12:01:05;;;;;;;15.57;14.02;;;19.00;99.90;;;;;;4841820;29;20053;-87
2021/08/19 12:03:33;;;;;;;15.00;13.50;;;19.10;99.90;;;;;;4837419;29;20061;-88
2021/08/19 12:06:19;;;;;;;15.77;13.02;;;19.20;99.90;;;;;;4836184;29;20060;-89
2021/08/19 12:08:49;;;;;;;14.20;12.50;;;19.30;99.90;;;;;;4837633;29;20057;-87
2021/08/19 12:11:19;;;;;;;14.25;12.95;;;19.40;99.90;;;;;;4839123;29;20045;-88
2021/08/19 12:13:46;;;;;;;13.27;12.00;;;19.40;99.90;;;;;;4841305;29;20048;-88
2021/08/19 12:16:22;;;;;;;14.93;12.30;;;19.30;99.90;;;;;;4857999;29;20049;-88
2021/08/19 12:19:12;;;;;;;13.73;12.15;;;19.20;99.90;;;;;;4859343;29;20045;-82
2021/08/19 12:21:55;;;;;;;12.13;10.90;;;19.20;99.90;;;;;;4846245;29;20049;-83
2021/08/19 12:24:41;;;;;;;14.50;13.00;;;19.10;99.90;;;;;;4831968;29;20045;-82
2021/08/19 12:27:25;;;;;;;14.93;13.32;;;19.10;99.90;;;;;;4859229;29;20056;-82
2021/08/19 12:30:08;;;;;;;16.58;14.27;;;19.00;99.90;;;;;;4857004;29;20052;-82
2021/08/19 12:32:37;;;;;;;13.95;12.63;;;19.00;99.90;;;;;;4861161;29;20048;-86
2021/08/19 12:35:11;;;;;;;13.32;11.95;;;19.00;99.90;;;;;;4856167;29;20040;-90
2021/08/19 12:37:53;;;;;;;11.15;10.13;;;19.00;99.90;;;;;;4854665;29;20052;-86
2021/08/19 12:40:34;;;;;;;12.60;11.30;;;19.10;99.90;;;;;;4867307;29;20048;-86
2021/08/19 12:43:08;;;;;;;12.73;10.45;;;19.00;99.90;;;;;;4846668;29;20052;-84
2021/08/19 12:45:36;;;;;;;10.85;9.75;;;19.00;99.90;;;;;;4827409;29;20052;-86
2021/08/19 12:48:08;;;;;;;9.07;8.27;;;19.00;99.90;;;;;;4844156;29;20049;-87
2021/08/19 12:50:37;;;;;;;12.43;8.48;;;19.00;99.90;;;;;;4871347;29;20060;-87
2021/08/19 12:53:09;;;;;;;10.05;8.23;;;19.10;99.90;;;;;;4840325;29;20399;-89
2021/08/19 12:55:37;;;;;;;8.70;7.90;;;19.10;99.90;;;;;;4835816;29;20046;-86
2021/08/19 12:58:04;;;;;;;8.73;7.93;;;19.10;99.90;;;;;;4848822;29;20391;-91
2021/08/19 13:00:32;;;;;;;10.15;8.70;;;19.00;99.90;;;;;;4841654;29;20046;-87
2021/08/19 13:03:01;;;;;;;10.00;8.80;;;19.10;99.90;;;;;;4839723;29;20048;-89
2021/08/19 13:05:31;;;;;;;11.20;7.78;;;19.20;99.90;;;;;;4833217;29;20063;-89
2021/08/19 13:07:58;;;;;;;7.90;6.78;;;19.20;99.90;;;;;;4849302;29;20052;-88
2021/08/19 13:10:26;;;;;;;8.05;7.22;;;19.20;99.90;;;;;;4837492;29;20057;-89
2021/08/19 13:12:56;;;;;;;8.07;7.28;;;19.20;99.90;;;;;;4847055;29;20040;-90
2021/08/19 13:15:25;;;;;;;7.03;5.43;;;19.10;99.90;;;;;;4829394;29;20392;-87
2021/08/19 13:17:52;;;;;;;5.85;4.63;;;19.00;99.90;;;;;;4851531;29;20047;-88
2021/08/19 13:20:19;;;;;;;7.35;6.47;;;19.00;99.90;;;;;;4829560;29;20045;-87
2021/08/19 13:22:47;;;;;;;5.80;5.03;;;19.00;99.90;;;;;;4847689;29;20053;-86
2021/08/19 13:25:14;;;;;;;6.30;5.10;;;18.90;99.90;;;;;;4840553;29;20059;-84